Borebas — LK8290 — position and weather

sailwx.info

Track history (hours):
 
Tides and Currents Weather Stations Pressure Air Temp Water Temp Dewpoint Dewpoint Depression Visibility Wind Speed Wind Dir Waves Ship Positions

Borebas

Last reported at 2018-Jun-23 14:53 UTC. Time now 2018-Jul-18 05:10 UTC.
Position N 59°37' E 010°25'.
Warning: this ship's position is 24 days out of date.

Length 13 m; draft 0.7 m.

Type: Dredging. MMSI: 257929900.

Date/timePositionNaut miles runAvg speedWind from/ knotsBaromVisibWave heightAir tempDewpointWater temp
2018-Jun-23 14:53N 59°37' E 010°25'2 6.4
2018-Jun-23 14:30N 59°35' E 010°25'4 7.4
2018-Jun-23 14:00N 59°31' E 010°25'3 5.9
2018-Jun-23 13:30N 59°29' E 010°28'4 7.3
2018-Jun-23 13:00N 59°26' E 010°32'3 6.8
2018-Jun-23 12:30N 59°23' E 010°35'3 6.6
2018-Jun-23 12:00N 59°19' E 010°37'3 6.5
2018-Jun-23 11:30N 59°16' E 010°39'3 6.4
2018-Jun-23 11:00N 59°13' E 010°41'3 6.4
2018-Jun-23 10:30N 59°11' E 010°45'3 6.3
2018-Jun-23 10:01N 59°08' E 010°49'3 6.5
2018-Jun-23 09:30N 59°08' E 010°55'0 0.7
2018-Jun-23 09:00N 59°08' E 010°56'3 5.2
2018-Jun-23 08:30N 59°10' E 010°57'1 2.1
2018-Jun-23 08:00N 59°11' E 010°57'0 0.0
2018-Jun-23 07:30N 59°11' E 010°57'0 0.0
2018-Jun-23 07:00N 59°11' E 010°57'0 0.0
2018-Jun-23 06:30N 59°11' E 010°57'0 0.0
2018-Jun-23 06:01N 59°11' E 010°57'0 0.0
2018-Jun-23 05:30N 59°11' E 010°57'1 2.7
2018-Jun-23 05:00N 59°10' E 010°57'713.4
2018-Jun-23 04:30N 59°03' E 010°58'510.8
2018-Jun-23 04:00N 59°02' E 010°48'612.7
2018-Jun-23 03:30N 58°56' E 010°44'714.2
2018-Jun-23 03:00N 58°49' E 010°46'715.0
2018-Jun-23 02:30N 58°41' E 010°48'2415.3
2018-Jun-23 00:57N 58°18' E 011°00'715.8
2018-Jun-23 00:30N 58°12' E 011°05'1715.0
2018-Jun-22 23:22N 57°56' E 011°16'514.2
2018-Jun-22 23:00N 57°51' E 011°18'713.7
2018-Jun-22 22:30N 57°44' E 011°21'613.0
2018-Jun-22 22:01N 57°38' E 011°24'713.6
2018-Jun-22 21:30N 57°31' E 011°28'714.3
2018-Jun-22 21:00N 57°25' E 011°32'80 5.7
2018-Jun-22 07:04N 56°10' E 012°25'113.1
2018-Jun-22 07:00N 56°10' E 012°27'713.0
2018-Jun-22 06:29N 56°05' E 012°36'611.8
2018-Jun-22 06:00N 56°00' E 012°41'612.4
2018-Jun-22 05:30N 55°55' E 012°44'813.4
2018-Jun-22 04:56N 55°47' E 012°42'613.6
2018-Jun-22 04:31N 55°41' E 012°41'611.8
2018-Jun-22 04:00N 55°35' E 012°42'611.1
2018-Jun-22 03:29N 55°30' E 012°43'613.5
2018-Jun-22 03:00N 55°23' E 012°41'611.5
2018-Jun-22 02:30N 55°18' E 012°45'  
2018-Jun-18 02:18N 55°26' E 015°23'413.8
2018-Jun-18 02:00N 55°26' E 015°16'713.7
2018-Jun-18 01:31N 55°25' E 015°04'713.7
2018-Jun-18 01:01N 55°24' E 014°52'813.8
2018-Jun-18 00:27N 55°23' E 014°39'714.2
2018-Jun-17 23:56N 55°17' E 014°30'4713.1
2018-Jun-17 20:19N 55°14' E 013°07'514.3
2018-Jun-17 19:59N 55°15' E 012°59'713.9
2018-Jun-17 19:30N 55°16' E 012°48'612.6
2018-Jun-17 19:00N 55°19' E 012°38'713.6
2018-Jun-17 18:30N 55°26' E 012°40'713.5
2018-Jun-17 18:00N 55°32' E 012°42'612.7
2018-Jun-17 17:30N 55°39' E 012°41'713.5
2018-Jun-17 17:00N 55°45' E 012°41'713.5
2018-Jun-17 16:30N 55°52' E 012°40'612.9
2018-Jun-17 16:00N 55°58' E 012°40'713.0
2018-Jun-17 15:30N 56°05' E 012°36'8313.3
2018-Jun-17 09:15N 57°19' E 011°30'414.6
2018-Jun-17 09:00N 57°23' E 011°28'714.6
2018-Jun-17 08:30N 57°29' E 011°21'13814.1
2018-Jun-16 22:44N 57°54' E 007°08'313.9
2018-Jun-16 22:30N 57°54' E 007°02'813.9
2018-Jun-16 21:57N 57°58' E 006°49'3413.3
2018-Jun-16 19:24N 58°21' E 006°02'512.0
2018-Jun-16 19:00N 58°26' E 005°59'1 1.4
2018-Jun-16 18:30N 58°26' E 005°59'0 0.0
2018-Jun-16 18:00N 58°26' E 005°59'0 0.0
2018-Jun-16 17:30N 58°26' E 005°59'0 0.0
2018-Jun-16 17:00N 58°26' E 005°59'0 0.0
2018-Jun-16 16:30N 58°26' E 005°59'0 0.0
2018-Jun-16 16:00N 58°26' E 005°59'0 0.2
2018-Jun-16 15:30N 58°26' E 005°59'2 3.6
2018-Jun-16 15:00N 58°25' E 005°60'3 5.2
2018-Jun-16 14:30N 58°24' E 005°55'813.0
2018-Jun-16 13:53N 58°29' E 005°43'514.3
2018-Jun-16 13:30N 58°33' E 005°36'714.6
2018-Jun-16 13:00N 58°40' E 005°29'714.3
2018-Jun-16 12:30N 58°46' E 005°23'714.1
2018-Jun-16 12:00N 58°53' E 005°20'713.9
2018-Jun-16 11:30N 58°60' E 005°19'713.5
2018-Jun-16 11:00N 59°07' E 005°19'713.8
2018-Jun-16 10:30N 59°14' E 005°20'1912.2
2018-Jun-16 08:59N 59°32' E 005°12'713.7
2018-Jun-16 08:26N 59°39' E 005°19'512.2
2018-Jun-16 08:00N 59°43' E 005°24'7 6.6
2018-Jun-16 06:54N 59°49' E 005°16'0 0.0
2018-Jun-16 06:11N 59°49' E 005°16'2 1.9
2018-Jun-16 05:23N 59°49' E 005°19'412.0
2018-Jun-16 05:00N 59°45' E 005°22'4 7.5
2018-Jun-16 04:28N 59°45' E 005°30'613.5
2018-Jun-16 03:59N 59°51' E 005°33'159 5.6
2018-Jun-14 23:26N 62°29' E 006°07'2 0.1
2018-Jun-14 09:15N 62°29' E 006°11'10 3.9
2018-Jun-14 06:39N 62°38' E 006°20'311.9
2018-Jun-14 06:25N 62°40' E 006°25'614.3
2018-Jun-14 06:00N 62°45' E 006°32'714.2
2018-Jun-14 05:30N 62°51' E 006°40'612.3
2018-Jun-14 05:00N 62°54' E 006°52'3 5.3
2018-Jun-14 04:30N 62°53' E 006°58'0 0.0
2018-Jun-14 04:00N 62°53' E 006°58'0 0.0
2018-Jun-14 03:30N 62°53' E 006°58'0 0.0
2018-Jun-14 03:00N 62°53' E 006°58'0 0.0
2018-Jun-14 02:30N 62°53' E 006°58'0 0.0
2018-Jun-14 02:00N 62°53' E 006°58'0 0.0
2018-Jun-14 01:30N 62°53' E 006°58'0 0.0
2018-Jun-14 00:58N 62°53' E 006°58'0 0.0
2018-Jun-14 00:30N 62°53' E 006°58'0 0.1
2018-Jun-14 00:00N 62°53' E 006°58'1 1.3
2018-Jun-13 23:25N 62°53' E 006°56'8 7.8
2018-Jun-13 22:22N 63°00' E 007°02'514.5
2018-Jun-13 22:00N 63°02' E 007°13'714.2
2018-Jun-13 21:30N 63°05' E 007°27'714.4
2018-Jun-13 21:00N 63°09' E 007°40'714.5
2018-Jun-13 20:30N 63°13' E 007°54'714.5
2018-Jun-13 20:00N 63°17' E 008°09'713.4
2018-Jun-13 19:30N 63°22' E 008°18'  
Track history (hours):
 
Tides and Currents Weather Stations Pressure Air Temp Water Temp Dewpoint Dewpoint Depression Visibility Wind Speed Wind Dir Waves Ship Positions

Borebas

Last reported at 2018-Jun-23 14:53 UTC. Time now 2018-Jul-18 05:10 UTC.
Position N 59°37' E 010°25'.
Warning: this ship's position is 24 days out of date.

Length 13 m; draft 0.7 m.

Type: Dredging. MMSI: 257929900.

Date/timePositionNaut miles runAvg speedWind from/ knotsBaromVisibWave heightAir tempDewpointWater temp
2018-Jun-23 14:53N 59°37' E 010°25'2 6.4
2018-Jun-23 14:30N 59°35' E 010°25'4 7.4
2018-Jun-23 14:00N 59°31' E 010°25'3 5.9
2018-Jun-23 13:30N 59°29' E 010°28'4 7.3
2018-Jun-23 13:00N 59°26' E 010°32'3 6.8
2018-Jun-23 12:30N 59°23' E 010°35'3 6.6
2018-Jun-23 12:00N 59°19' E 010°37'3 6.5
2018-Jun-23 11:30N 59°16' E 010°39'3 6.4
2018-Jun-23 11:00N 59°13' E 010°41'3 6.4
2018-Jun-23 10:30N 59°11' E 010°45'3 6.3
2018-Jun-23 10:01N 59°08' E 010°49'3 6.5
2018-Jun-23 09:30N 59°08' E 010°55'0 0.7
2018-Jun-23 09:00N 59°08' E 010°56'3 5.2
2018-Jun-23 08:30N 59°10' E 010°57'1 2.1
2018-Jun-23 08:00N 59°11' E 010°57'0 0.0
2018-Jun-23 07:30N 59°11' E 010°57'0 0.0
2018-Jun-23 07:00N 59°11' E 010°57'0 0.0
2018-Jun-23 06:30N 59°11' E 010°57'0 0.0
2018-Jun-23 06:01N 59°11' E 010°57'0 0.0
2018-Jun-23 05:30N 59°11' E 010°57'1 2.7
2018-Jun-23 05:00N 59°10' E 010°57'713.4
2018-Jun-23 04:30N 59°03' E 010°58'510.8
2018-Jun-23 04:00N 59°02' E 010°48'612.7
2018-Jun-23 03:30N 58°56' E 010°44'714.2
2018-Jun-23 03:00N 58°49' E 010°46'715.0
2018-Jun-23 02:30N 58°41' E 010°48'2415.3
2018-Jun-23 00:57N 58°18' E 011°00'715.8
2018-Jun-23 00:30N 58°12' E 011°05'1715.0
2018-Jun-22 23:22N 57°56' E 011°16'514.2
2018-Jun-22 23:00N 57°51' E 011°18'713.7
2018-Jun-22 22:30N 57°44' E 011°21'613.0
2018-Jun-22 22:01N 57°38' E 011°24'713.6
2018-Jun-22 21:30N 57°31' E 011°28'714.3
2018-Jun-22 21:00N 57°25' E 011°32'80 5.7
2018-Jun-22 07:04N 56°10' E 012°25'113.1
2018-Jun-22 07:00N 56°10' E 012°27'713.0
2018-Jun-22 06:29N 56°05' E 012°36'611.8
2018-Jun-22 06:00N 56°00' E 012°41'612.4
2018-Jun-22 05:30N 55°55' E 012°44'813.4
2018-Jun-22 04:56N 55°47' E 012°42'613.6
2018-Jun-22 04:31N 55°41' E 012°41'611.8
2018-Jun-22 04:00N 55°35' E 012°42'611.1
2018-Jun-22 03:29N 55°30' E 012°43'613.5
2018-Jun-22 03:00N 55°23' E 012°41'611.5
2018-Jun-22 02:30N 55°18' E 012°45'  
2018-Jun-18 02:18N 55°26' E 015°23'413.8
2018-Jun-18 02:00N 55°26' E 015°16'713.7
2018-Jun-18 01:31N 55°25' E 015°04'713.7
2018-Jun-18 01:01N 55°24' E 014°52'813.8
2018-Jun-18 00:27N 55°23' E 014°39'714.2
2018-Jun-17 23:56N 55°17' E 014°30'4713.1
2018-Jun-17 20:19N 55°14' E 013°07'514.3
2018-Jun-17 19:59N 55°15' E 012°59'713.9
2018-Jun-17 19:30N 55°16' E 012°48'612.6
2018-Jun-17 19:00N 55°19' E 012°38'713.6
2018-Jun-17 18:30N 55°26' E 012°40'713.5
2018-Jun-17 18:00N 55°32' E 012°42'612.7
2018-Jun-17 17:30N 55°39' E 012°41'713.5
2018-Jun-17 17:00N 55°45' E 012°41'713.5
2018-Jun-17 16:30N 55°52' E 012°40'612.9
2018-Jun-17 16:00N 55°58' E 012°40'713.0
2018-Jun-17 15:30N 56°05' E 012°36'8313.3
2018-Jun-17 09:15N 57°19' E 011°30'414.6
2018-Jun-17 09:00N 57°23' E 011°28'714.6
2018-Jun-17 08:30N 57°29' E 011°21'13814.1
2018-Jun-16 22:44N 57°54' E 007°08'313.9
2018-Jun-16 22:30N 57°54' E 007°02'813.9
2018-Jun-16 21:57N 57°58' E 006°49'3413.3
2018-Jun-16 19:24N 58°21' E 006°02'512.0
2018-Jun-16 19:00N 58°26' E 005°59'1 1.4
2018-Jun-16 18:30N 58°26' E 005°59'0 0.0
2018-Jun-16 18:00N 58°26' E 005°59'0 0.0
2018-Jun-16 17:30N 58°26' E 005°59'0 0.0
2018-Jun-16 17:00N 58°26' E 005°59'0 0.0
2018-Jun-16 16:30N 58°26' E 005°59'0 0.0
2018-Jun-16 16:00N 58°26' E 005°59'0 0.2
2018-Jun-16 15:30N 58°26' E 005°59'2 3.6
2018-Jun-16 15:00N 58°25' E 005°60'3 5.2
2018-Jun-16 14:30N 58°24' E 005°55'813.0
2018-Jun-16 13:53N 58°29' E 005°43'514.3
2018-Jun-16 13:30N 58°33' E 005°36'714.6
2018-Jun-16 13:00N 58°40' E 005°29'714.3
2018-Jun-16 12:30N 58°46' E 005°23'714.1
2018-Jun-16 12:00N 58°53' E 005°20'713.9
2018-Jun-16 11:30N 58°60' E 005°19'713.5
2018-Jun-16 11:00N 59°07' E 005°19'713.8
2018-Jun-16 10:30N 59°14' E 005°20'1912.2
2018-Jun-16 08:59N 59°32' E 005°12'713.7
2018-Jun-16 08:26N 59°39' E 005°19'512.2
2018-Jun-16 08:00N 59°43' E 005°24'7 6.6
2018-Jun-16 06:54N 59°49' E 005°16'0 0.0
2018-Jun-16 06:11N 59°49' E 005°16'2 1.9
2018-Jun-16 05:23N 59°49' E 005°19'412.0
2018-Jun-16 05:00N 59°45' E 005°22'4 7.5
2018-Jun-16 04:28N 59°45' E 005°30'613.5
2018-Jun-16 03:59N 59°51' E 005°33'159 5.6
2018-Jun-14 23:26N 62°29' E 006°07'2 0.1
2018-Jun-14 09:15N 62°29' E 006°11'10 3.9
2018-Jun-14 06:39N 62°38' E 006°20'311.9
2018-Jun-14 06:25N 62°40' E 006°25'614.3
2018-Jun-14 06:00N 62°45' E 006°32'714.2
2018-Jun-14 05:30N 62°51' E 006°40'612.3
2018-Jun-14 05:00N 62°54' E 006°52'3 5.3
2018-Jun-14 04:30N 62°53' E 006°58'0 0.0
2018-Jun-14 04:00N 62°53' E 006°58'0 0.0
2018-Jun-14 03:30N 62°53' E 006°58'0 0.0
2018-Jun-14 03:00N 62°53' E 006°58'0 0.0
2018-Jun-14 02:30N 62°53' E 006°58'0 0.0
2018-Jun-14 02:00N 62°53' E 006°58'0 0.0
2018-Jun-14 01:30N 62°53' E 006°58'0 0.0
2018-Jun-14 00:58N 62°53' E 006°58'0 0.0
2018-Jun-14 00:30N 62°53' E 006°58'0 0.1
2018-Jun-14 00:00N 62°53' E 006°58'1 1.3
2018-Jun-13 23:25N 62°53' E 006°56'8 7.8
2018-Jun-13 22:22N 63°00' E 007°02'514.5
2018-Jun-13 22:00N 63°02' E 007°13'714.2
2018-Jun-13 21:30N 63°05' E 007°27'714.4
2018-Jun-13 21:00N 63°09' E 007°40'714.5
2018-Jun-13 20:30N 63°13' E 007°54'714.5
2018-Jun-13 20:00N 63°17' E 008°09'713.4
2018-Jun-13 19:30N 63°22' E 008°18'  

Dump ship's entire track history